Skip Navigation Links Skip Navigation Links

Current Weather

Blue Ridge, Martinsville, Va.

For information only: do not use for flight planning or navigation.
Latest weather
Observation time Thursday, December 13, 2018 1:36 PM EST
Local time Thursday, December 13, 2018 2:09 PM EST
Flight conditions Visual Meteorological Conditions
Winds
Wind direction East (100°)
Wind speed 3 mph
Visibility 10 mi.
Sky condition
Ceiling 8,500 ft. overcast
Cloud layer overcast 8,500 ft.
Temperature 46°F
Dewpoint 27°F
Altimeter 30.28 in.Hg
Derived measurements
Relative humidity 46%
Wind chill 45°F
Density altitude -232 ft.
Remarks
Fully automated report.
Automated weather observing station with precipitation discriminator.
METAR KMTV 131836Z AUTO 10003KT 10SM OVC085 08/M03 A3028 RMK AO2

Settings

Location code

InnerDrive.Weather 4.0.6770.0 Release CLR 4.0.30319.42000
Copyright ©2018 Inner Drive Technology. All rights reserved. Portions Copyright ©1986-2018 David Braverman.

Find weather

Site navigation


Skip Navigation Links

Place info

Page info

PayPal - The safer, easier way to pay online!

Return home.

Copyright ©2018 Inner Drive Technology. Purveyors of fine, hand-crafted computer software. Page printed 2018-12-13T19:09:25 UTC.